Усть-Бюрь

СКИДКИ НА СМАРТФОНЫ!

Карта отелей и гостиниц, располагающихся рядом с аэропортом Усть-Бюрь :

Усть-Бюрь Республика Хакасия 53° 48' 58.2012" N, 90° 15' 4.86" E
Код аэродрома ИКАО
UNAX
Код аэродрома RU
УНАЬ
Координаты
N53.81617° E090.25135°
Превышение над уровнем моря
640
Основная полоса
16/34
Курс магнитный
164/344
Длина основной ВПП
700
Ширина основной ВПП
90
Покрытие основной ВПП
Нетвёрдое (грунт)
Освещение ВПП
Нет
Тип: 
Аэродром
Класс аэродрома: 
Принадлежность: 
ГА
Статус: 
Недействующий
Сайт: 
E-mail аэродрома: 
Страна: 
Россия
Регион: 
Республика Хакасия
Город: 
Дополнительная информация: 
Горный.

Скидки на навигаторы!

Найти трансфер

С помощью этой формы Вы можете найти трансфер из аэропорта Усть-Бюрь в город, аэропорт или вокзал:

Погода в аэропортах:

Авиационная погода в Толмачево

Регион: 
Погода METAR: 
UNNT 190100Z 28002MPS 3800 0150SE FG OVC001 07/07 Q1013 R16/090070 R07/090070 NOSIG RMK QBB050 QFE750/1000
Время наблюдения
2022-08-19T01:00:00Z
Температура C
7.0
Точка росы
7.0
Направление ветра
280
Скорость ветра (узлы)
4
Метео видимость
2.36
Облачность
OVC
Нижняя граница облачности (футы)
100
Явления погоды
FG
Условия полета
LIFR
Аэропорт подробнее: 
OVC – сплошная облачность;
FG – туман (небо не видно, температура воздуха выше нуля или ноль);

Авиационная погода в Богашево

Регион: 
Погода METAR: 
UNTT 190100Z 25003MPS 2300 -RA BR OVC002 10/10 Q1011 R21/290050 NOSIG RMK QFE743
Время наблюдения
2022-08-19T01:00:00Z
Температура C
10.0
Точка росы
10.0
Направление ветра
250
Скорость ветра (узлы)
6
Метео видимость
1.43
Облачность
OVC
Нижняя граница облачности (футы)
200
Явления погоды
-RA BR
Условия полета
LIFR
Аэропорт подробнее: 
OVC – сплошная облачность;
-RA - слабый дождь; BR – дымка (видимость от 1 до 9 км);

Авиационная погода в аэропорту Имени Алексея Леонова

Регион: 
Погода METAR: 
UNEE 190100Z 12001MPS 3800 BR FEW001 06/06 Q1012 R23/CLRD60 NOSIG RMK QBB050 QFE736
Время наблюдения
2022-08-19T01:00:00Z
Температура C
6.0
Точка росы
6.0
Направление ветра
120
Скорость ветра (узлы)
2
Метео видимость
2.36
Облачность
FEW
Нижняя граница облачности (футы)
100
Явления погоды
BR
Условия полета
IFR
Аэропорт подробнее: 
FEW – незначительная облачность;
BR – дымка (видимость от 1 до 9 км);

Авиационная погода в аэропорту Новый

Регион: 
Погода METAR: 
UHHH 190100Z 22003MPS 160V250 9000 -SHRA SCT003 SCT017CB 20/20 Q0997 R23R/290045 NOSIG RMK QBB100 QFE742/0989
Время наблюдения
2022-08-19T01:00:00Z
Температура C
20.0
Точка росы
20.0
Направление ветра
220
Скорость ветра (узлы)
6
Метео видимость
5.59
Облачность
SCT
SCT
Нижняя граница облачности (футы)
300
1700
Явления погоды
-SHRA
Условия полета
VFR
Аэропорт подробнее: 
SCT – разбросанная отдельная облачность;
-SHRA - слабый ливневой дождь;